Duke Street, Reading, Berkshire, RG1 4RU, United Kingdom

Reading Town Centre Webcam

Live Image

Oscura's Reading Webcam is aimed out of our top floor offices in Duke Street, central Reading town centre, Berkshire. Our camera is facing South West with a view of the Reading Oracle Shopping Centre.

Previous Hours

Current weather conditions and forecast for Reading, Berkshire

When Temp Weather Wind Cloud Humidity Rain Snow
Now 8C Fair 2mph WSW 7% 86% 0% 0%
17 Oct 01:00 7C Fair 2mph WSW 39% 83% 0% 0%
17 Oct 04:00 6C Fair 2mph SSW 12% 87% 0% 0%
17 Oct 07:00 7C Showers 4mph SSE 72% 87% 23% 0%
17 Oct 10:00 10C Showers 6mph S 79% 82% 47% 0%
17 Oct 13:00 12C Showers 17mph SSW 76% 73% 95% 0%
17 Oct 16:00 12C Showers 15mph SSW 38% 74% 47% 0%
17 Oct 19:00 10C Fair 11mph SSW 35% 85% 0% 0%
17 Oct 22:00 10C Showers 8mph SSW 60% 87% 47% 0%
18 Oct 01:00 10C Intermittent Rain 13mph SSW 95% 91% 95% 0%
18 Oct 04:00 10C Intermittent Rain 13mph WSW 98% 85% 71% 0%
18 Oct 07:00 9C Intermittent Rain 11mph SW 99% 90% 47% 0%
18 Oct 10:00 10C Fair 15mph SW 40% 77% 23% 0%
18 Oct 13:00 12C Showers 20mph SW 61% 71% 61% 0%
18 Oct 16:00 12C Partly Cloudy 20mph SW 45% 72% 31% 0%
18 Oct 19:00 10C Intermittent Rain 13mph SSW 98% 80% 37% 0%
18 Oct 22:00 9C Partly Cloudy 13mph SSW 100% 84% 0% 0%
19 Oct 01:00 9C Fair 13mph SSW 37% 85% 0% 0%
19 Oct 04:00 9C Partly Cloudy 13mph SSW 86% 84% 0% 0%
19 Oct 07:00 9C Partly Cloudy 13mph SW 43% 88% 0% 0%
19 Oct 11:00 11C Fair 13mph WSW 29% 78% 0% 0%
19 Oct 14:00 12C Showers 13mph WSW 17% 71% 15% 0%
19 Oct 17:00 11C Fair 6mph WSW 28% 79% 0% 0%
19 Oct 20:00 7C Clear 4mph WSW 0% 92% 0% 0%
19 Oct 23:00 6C Clear 2mph WNW 0% 94% 0% 0%


Oscura provide website development, web server hosting, Internet services and IT Support in Reading and the surrounding area.